ΕΜΥ, Εθνική Μετεωρολογική Υπηρεσία - Δελτία Καιρού, Προγνώσεις

ΑΕΡΟΝΑΥΤΙΛΙΑ

GREEK AIRPORTS CODES

LGAV 241750Z 31003KT 9999 FEW030 SCT070 16/12 Q1023 RMK BKN150 NOSIG=

EUROPEAN AIRPORTS CODES

LFPO 241800Z 18003KT 150V220 9999 FEW020 14/07 Q1000 NOSIG=